createdAt,value
2023-04-23T00:00:48.619Z,7.38
2023-04-23T00:03:19.577Z,6.93
2023-04-23T00:05:47.822Z,6.47
2023-04-23T00:08:18.250Z,6.05
2023-04-23T00:10:46.347Z,6.60
2023-04-23T00:13:14.008Z,7.72
2023-04-23T00:15:41.678Z,8.90
2023-04-23T00:18:09.589Z,8.13
2023-04-23T00:20:37.207Z,7.90
2023-04-23T00:23:04.747Z,6.97
2023-04-23T00:25:32.544Z,8.25
2023-04-23T00:28:00.182Z,7.10
2023-04-23T00:30:28.154Z,8.05
2023-04-23T00:32:55.853Z,6.82
2023-04-23T00:35:23.637Z,8.90
2023-04-23T00:37:51.139Z,6.18
2023-04-23T00:40:18.752Z,7.88
2023-04-23T00:42:46.425Z,7.82
2023-04-23T00:45:14.182Z,7.43
2023-04-23T00:47:42.000Z,7.10
2023-04-23T00:50:10.014Z,6.22
2023-04-23T00:52:39.199Z,8.25
2023-04-23T00:55:08.602Z,6.88
2023-04-23T00:57:39.519Z,4.82
2023-04-23T01:00:08.348Z,8.95
2023-04-23T01:02:38.501Z,8.35
2023-04-23T01:05:07.902Z,9.75
2023-04-23T01:07:35.874Z,8.18
2023-04-23T01:10:05.168Z,7.22
2023-04-23T01:12:33.562Z,7.05
2023-04-23T01:15:01.474Z,6.35
2023-04-23T01:17:29.206Z,6.38
2023-04-23T01:19:57.084Z,7.85
2023-04-23T01:22:24.911Z,7.43
2023-04-23T01:24:52.796Z,6.93
2023-04-23T01:27:20.998Z,9.13
2023-04-23T01:29:49.364Z,6.60
2023-04-23T01:32:18.601Z,6.43
2023-04-23T01:34:48.159Z,7.57
2023-04-23T01:37:17.537Z,7.53
2023-04-23T01:39:45.105Z,6.97
2023-04-23T01:42:12.686Z,5.72
2023-04-23T01:44:41.049Z,7.68
2023-04-23T01:47:08.793Z,6.10
2023-04-23T01:49:36.458Z,6.93
2023-04-23T01:52:04.317Z,5.32
2023-04-23T01:54:31.952Z,6.82
2023-04-23T01:56:59.537Z,5.88
2023-04-23T01:59:27.236Z,6.82
2023-04-23T02:01:54.687Z,6.18
2023-04-23T02:04:22.830Z,5.78
2023-04-23T02:06:52.499Z,5.63
2023-04-23T02:09:20.176Z,5.35
2023-04-23T02:11:47.691Z,5.80
2023-04-23T02:14:17.783Z,5.32
2023-04-23T02:16:45.792Z,6.10
2023-04-23T02:19:15.356Z,5.55
2023-04-23T02:21:43.581Z,6.47
2023-04-23T02:24:11.221Z,9.13
2023-04-23T02:26:38.713Z,8.05
2023-04-23T02:29:06.307Z,9.02
2023-04-23T02:31:33.939Z,8.75
2023-04-23T02:34:01.535Z,7.70
2023-04-23T02:36:31.137Z,8.50
2023-04-23T02:38:58.716Z,7.28
2023-04-23T02:41:26.160Z,8.25
2023-04-23T02:43:53.630Z,7.30
2023-04-23T02:46:21.392Z,6.15
2023-04-23T02:48:48.876Z,7.78
2023-04-23T02:51:16.561Z,6.82
2023-04-23T02:53:44.062Z,5.07
2023-04-23T02:56:11.498Z,5.47
2023-04-23T02:58:39.075Z,6.28
2023-04-23T03:01:07.022Z,5.55
2023-04-23T03:03:34.927Z,7.57
2023-04-23T03:06:05.005Z,6.03
2023-04-23T03:08:32.711Z,5.93
2023-04-23T03:11:00.935Z,7.05
2023-04-23T03:13:28.560Z,6.85
2023-04-23T03:15:56.480Z,5.15
2023-04-23T03:18:24.008Z,7.15
2023-04-23T03:20:54.049Z,6.90
2023-04-23T03:23:21.732Z,6.72
2023-04-23T03:25:49.675Z,7.68
2023-04-23T03:28:17.246Z,6.85
2023-04-23T03:30:45.477Z,6.30
2023-04-23T03:33:13.078Z,6.68
2023-04-23T03:35:41.369Z,6.18
2023-04-23T03:38:14.238Z,5.90
2023-04-23T03:40:42.540Z,6.13
2023-04-23T03:43:11.848Z,6.38
2023-04-23T03:46:08.666Z,6.10
2023-04-23T03:48:39.410Z,5.22
2023-04-23T03:51:12.326Z,6.97
2023-04-23T03:53:45.964Z,5.03
2023-04-23T03:56:35.594Z,6.20
2023-04-23T03:59:24.575Z,5.20
2023-04-23T04:01:55.029Z,6.05
2023-04-23T04:04:22.814Z,6.57
2023-04-23T04:06:51.297Z,5.15
2023-04-23T04:09:18.887Z,5.25
2023-04-23T04:11:46.395Z,6.05
2023-04-23T04:14:14.267Z,6.07
2023-04-23T04:16:41.723Z,6.28
2023-04-23T04:19:09.377Z,5.95
2023-04-23T04:21:36.960Z,6.60
2023-04-23T04:24:05.058Z,7.85
2023-04-23T04:26:34.383Z,5.95
2023-04-23T04:29:02.284Z,6.65
2023-04-23T04:31:29.894Z,6.18
2023-04-23T04:33:58.047Z,5.45
2023-04-23T04:36:27.290Z,5.63
2023-04-23T04:39:01.052Z,6.82
2023-04-23T04:41:28.693Z,6.88
2023-04-23T04:43:56.234Z,4.95
2023-04-23T04:46:24.005Z,5.88
2023-04-23T04:48:51.544Z,7.35
2023-04-23T04:51:19.216Z,7.55
2023-04-23T04:53:46.859Z,5.78
2023-04-23T04:56:14.467Z,6.25
2023-04-23T04:58:42.077Z,7.15
2023-04-23T05:01:10.962Z,4.97
2023-04-23T05:03:39.426Z,7.97
2023-04-23T05:06:07.181Z,6.75
2023-04-23T05:08:34.671Z,8.05
2023-04-23T05:11:03.933Z,7.60
2023-04-23T05:13:31.410Z,7.07
2023-04-23T05:15:58.960Z,6.88
2023-04-23T05:18:26.356Z,6.90
2023-04-23T05:20:53.898Z,7.35
2023-04-23T05:23:21.381Z,6.88
2023-04-23T05:25:50.425Z,6.95
2023-04-23T05:28:18.538Z,6.22
2023-04-23T05:30:46.046Z,5.68
2023-04-23T05:33:13.536Z,6.28
2023-04-23T05:35:41.165Z,4.72
2023-04-23T05:38:09.073Z,4.85
2023-04-23T05:40:36.528Z,4.60
2023-04-23T05:43:04.297Z,5.10
2023-04-23T05:45:31.961Z,4.30
2023-04-23T05:48:00.084Z,5.63
2023-04-23T05:50:27.786Z,4.85
2023-04-23T05:52:55.375Z,5.38
2023-04-23T05:55:24.045Z,4.15
2023-04-23T05:57:51.598Z,3.70
2023-04-23T06:00:19.159Z,3.50
2023-04-23T06:02:47.988Z,4.35
2023-04-23T06:05:16.133Z,4.15
2023-04-23T06:07:43.853Z,3.97
2023-04-23T06:10:12.243Z,3.70
2023-04-23T06:12:40.203Z,4.32
2023-04-23T06:15:09.222Z,3.90
2023-04-23T06:17:37.139Z,4.00
2023-04-23T06:20:05.317Z,3.90
2023-04-23T06:22:32.818Z,4.25
2023-04-23T06:25:00.336Z,4.28
2023-04-23T06:27:27.800Z,4.70
2023-04-23T06:29:59.867Z,3.60
2023-04-23T06:32:27.475Z,3.33
2023-04-23T06:35:01.566Z,4.57
2023-04-23T06:37:31.808Z,5.32
2023-04-23T06:39:59.742Z,4.15
2023-04-23T06:42:27.312Z,6.03
2023-04-23T06:45:13.089Z,4.77
2023-04-23T06:47:40.714Z,6.15
2023-04-23T06:50:08.692Z,5.72
2023-04-23T06:52:36.791Z,5.97
2023-04-23T06:55:04.795Z,6.35
2023-04-23T06:57:32.306Z,5.85
2023-04-23T07:00:00.415Z,5.22
2023-04-23T07:02:33.775Z,6.38
2023-04-23T07:05:01.343Z,5.53
2023-04-23T07:07:28.802Z,5.82
2023-04-23T07:09:56.558Z,4.47
2023-04-23T07:12:24.510Z,6.78
2023-04-23T07:14:53.625Z,5.38
2023-04-23T07:17:21.785Z,5.72
2023-04-23T07:19:49.542Z,9.32
2023-04-23T07:22:17.487Z,9.38
2023-04-23T07:24:44.999Z,9.25
2023-04-23T07:27:13.713Z,8.55
2023-04-23T07:29:41.254Z,8.93
2023-04-23T07:32:08.757Z,9.60
2023-04-23T07:34:39.551Z,8.57
2023-04-23T07:37:07.405Z,7.85
2023-04-23T07:39:34.932Z,8.40
2023-04-23T07:42:02.464Z,7.97
2023-04-23T07:44:30.013Z,9.57
2023-04-23T07:46:57.633Z,8.63
2023-04-23T07:49:25.674Z,8.40
2023-04-23T07:51:53.472Z,9.43
2023-04-23T07:54:21.015Z,8.65
2023-04-23T07:56:48.529Z,10.68
2023-04-23T07:59:16.077Z,8.95
2023-04-23T08:01:43.572Z,10.38
2023-04-23T08:04:12.490Z,11.15
2023-04-23T08:06:40.187Z,11.48
2023-04-23T08:09:07.688Z,10.23
2023-04-23T08:11:35.831Z,10.48
2023-04-23T08:14:03.273Z,12.82
2023-04-23T08:16:31.821Z,13.05
2023-04-23T08:19:05.374Z,10.43
2023-04-23T08:21:35.092Z,8.68
2023-04-23T08:24:05.296Z,10.82
2023-04-23T08:26:32.847Z,11.35
2023-04-23T08:29:03.598Z,12.10
2023-04-23T08:31:31.223Z,10.48
2023-04-23T08:33:59.356Z,8.77
2023-04-23T08:36:27.720Z,11.27
2023-04-23T08:38:55.261Z,8.93
2023-04-23T08:41:27.328Z,10.38
2023-04-23T08:44:04.944Z,11.13
2023-04-23T08:46:34.104Z,12.07
2023-04-23T08:49:03.752Z,10.20
2023-04-23T08:51:35.838Z,10.80
2023-04-23T08:54:06.068Z,8.93
2023-04-23T08:56:34.207Z,11.80
2023-04-23T08:59:04.029Z,8.73
2023-04-23T09:01:31.755Z,8.63
2023-04-23T09:04:00.650Z,8.90
2023-04-23T09:06:29.366Z,8.50
2023-04-23T09:08:56.796Z,7.85
2023-04-23T09:11:27.167Z,7.35
2023-04-23T09:13:56.741Z,6.35
2023-04-23T09:16:24.408Z,5.40
2023-04-23T09:18:52.601Z,4.88
2023-04-23T09:21:21.367Z,4.72
2023-04-23T09:23:52.205Z,5.15
2023-04-23T09:26:23.678Z,4.93
2023-04-23T09:28:51.437Z,4.28
2023-04-23T09:31:23.984Z,5.43
2023-04-23T09:33:55.362Z,5.07
2023-04-23T09:36:26.356Z,4.53
2023-04-23T09:38:59.050Z,8.38
2023-04-23T09:41:28.303Z,4.43
2023-04-23T09:43:57.144Z,4.13
2023-04-23T09:46:42.384Z,4.38
2023-04-23T09:49:11.471Z,6.80
2023-04-23T09:51:40.719Z,4.30
2023-04-23T09:54:12.898Z,4.95
2023-04-23T09:56:41.676Z,4.93
2023-04-23T10:02:04.496Z,5.10
2023-04-23T10:04:34.197Z,4.80
2023-04-23T10:07:18.014Z,4.85
2023-04-23T10:09:47.415Z,5.18
2023-04-23T10:14:46.789Z,5.22
2023-04-23T10:17:14.414Z,5.05
2023-04-23T10:19:44.164Z,5.20
2023-04-23T10:22:19.101Z,5.13
2023-04-23T10:24:58.687Z,5.15
2023-04-23T10:27:40.274Z,4.75
2023-04-23T10:30:16.464Z,5.22
2023-04-23T10:32:45.151Z,5.00
2023-04-23T10:35:12.824Z,4.22
2023-04-23T10:37:41.615Z,4.35
2023-04-23T10:40:22.133Z,3.75
2023-04-23T10:42:50.603Z,3.83
2023-04-23T10:45:24.679Z,3.80
2023-04-23T10:47:57.219Z,4.68
2023-04-23T10:50:30.063Z,3.42
2023-04-23T10:52:58.668Z,3.35
2023-04-23T10:55:28.429Z,3.28
2023-04-23T10:58:03.071Z,3.50
2023-04-23T11:00:48.656Z,3.08
2023-04-23T11:03:32.761Z,3.53
2023-04-23T11:06:05.047Z,3.40
2023-04-23T11:08:35.040Z,3.10
2023-04-23T11:11:08.500Z,3.33
2023-04-23T11:13:36.046Z,3.53
2023-04-23T11:16:23.310Z,3.50
2023-04-23T11:19:13.540Z,3.30
2023-04-23T11:22:00.140Z,3.13
2023-04-23T11:24:32.653Z,3.13
2023-04-23T11:27:01.473Z,3.80
2023-04-23T11:29:29.436Z,3.50
2023-04-23T11:34:29.057Z,4.25
2023-04-23T11:36:59.330Z,5.35
2023-04-23T11:39:27.432Z,4.78
2023-04-23T11:41:55.252Z,5.65
2023-04-23T11:44:22.885Z,5.85
2023-04-23T11:46:50.987Z,5.18
2023-04-23T11:49:20.008Z,5.13
2023-04-23T11:51:49.457Z,5.05
2023-04-23T11:54:17.007Z,4.32
2023-04-23T11:56:45.007Z,3.85
2023-04-23T11:59:12.614Z,5.07
2023-04-23T12:01:45.561Z,6.03
2023-04-23T12:04:16.907Z,5.45
2023-04-23T12:06:46.936Z,5.28
2023-04-23T12:09:16.363Z,5.97
2023-04-23T12:11:44.893Z,5.15
2023-04-23T12:14:14.252Z,5.53
2023-04-23T12:16:46.933Z,5.40
2023-04-23T12:19:15.821Z,5.55
2023-04-23T12:22:03.813Z,4.93
2023-04-23T12:24:45.704Z,4.20
2023-04-23T12:27:16.128Z,4.97
2023-04-23T12:29:44.007Z,5.38
2023-04-23T12:32:12.418Z,4.85
2023-04-23T12:34:56.425Z,4.68
2023-04-23T12:37:26.074Z,4.40
2023-04-23T12:39:55.564Z,4.50
2023-04-23T12:42:23.055Z,4.80
2023-04-23T12:44:51.821Z,4.38
2023-04-23T12:47:22.212Z,4.47
2023-04-23T12:49:53.755Z,5.30
2023-04-23T12:52:21.682Z,4.55
2023-04-23T12:54:52.829Z,5.35
2023-04-23T12:57:23.357Z,5.43
2023-04-23T12:59:51.535Z,4.15
2023-04-23T13:02:19.499Z,3.83
2023-04-23T13:04:47.167Z,4.53
2023-04-23T13:07:14.797Z,4.63
2023-04-23T13:09:42.874Z,4.70
2023-04-23T13:12:10.805Z,5.88
2023-04-23T13:14:38.887Z,4.28
2023-04-23T13:17:07.280Z,4.95
2023-04-23T13:19:35.561Z,4.10
2023-04-23T13:22:04.750Z,4.65
2023-04-23T13:24:32.390Z,5.78
2023-04-23T13:27:01.595Z,5.43
2023-04-23T13:29:29.193Z,5.38
2023-04-23T13:31:58.300Z,4.95
2023-04-23T13:34:25.910Z,5.13
2023-04-23T13:36:53.356Z,5.90
2023-04-23T13:39:21.487Z,5.65
2023-04-23T13:41:59.230Z,4.75
2023-04-23T13:44:34.081Z,4.38
2023-04-23T13:47:01.625Z,4.60
2023-04-23T13:49:29.087Z,4.35
2023-04-23T13:52:00.371Z,3.55
2023-04-23T13:54:27.994Z,3.65
2023-04-23T13:56:58.619Z,3.58
2023-04-23T13:59:26.385Z,5.15
2023-04-23T14:01:53.970Z,3.63
2023-04-23T14:04:24.901Z,3.65
2023-04-23T14:06:52.669Z,4.43
2023-04-23T14:09:22.238Z,3.28
2023-04-23T14:11:49.960Z,2.83
2023-04-23T14:14:18.090Z,2.45
2023-04-23T14:16:45.684Z,2.60
2023-04-23T14:19:13.309Z,3.00
2023-04-23T14:21:41.714Z,3.05
2023-04-23T14:24:17.315Z,3.58
2023-04-23T14:26:48.608Z,3.35
2023-04-23T14:29:25.673Z,3.30
2023-04-23T14:31:53.350Z,3.00
2023-04-23T14:34:21.315Z,3.60
2023-04-23T14:36:49.606Z,3.45
2023-04-23T14:39:17.333Z,2.92
2023-04-23T14:41:45.700Z,2.85
2023-04-23T14:44:13.284Z,2.38
2023-04-23T14:46:40.976Z,2.60
2023-04-23T14:49:08.941Z,3.08
2023-04-23T14:51:37.551Z,3.47
2023-04-23T14:54:05.311Z,3.30
2023-04-23T14:56:32.910Z,2.92
2023-04-23T14:59:00.492Z,2.60
2023-04-23T15:01:29.191Z,2.70
2023-04-23T15:03:56.863Z,2.58
2023-04-23T15:06:24.371Z,2.88
2023-04-23T15:08:51.942Z,2.85
2023-04-23T15:11:19.553Z,2.75
2023-04-23T15:14:01.855Z,3.03
2023-04-23T15:19:11.865Z,2.00
2023-04-23T15:21:41.917Z,3.03
2023-04-23T15:24:09.859Z,2.65
2023-04-23T15:26:38.120Z,3.00
2023-04-23T15:29:09.006Z,3.08
2023-04-23T15:31:37.909Z,3.20
2023-04-23T15:34:08.894Z,3.50
2023-04-23T15:36:38.030Z,3.40
2023-04-23T15:39:09.310Z,2.97
2023-04-23T15:41:40.340Z,3.20
2023-04-23T15:44:11.911Z,3.03
2023-04-23T15:46:40.316Z,3.50
2023-04-23T15:49:07.873Z,3.60
2023-04-23T15:51:36.125Z,3.33
2023-04-23T15:54:06.482Z,3.15
2023-04-23T15:56:34.715Z,2.72
2023-04-23T15:59:02.544Z,3.45
2023-04-23T16:01:30.313Z,3.80
2023-04-23T16:06:28.703Z,3.90
2023-04-23T16:08:56.357Z,3.95
2023-04-23T16:11:27.638Z,3.63
2023-04-23T16:13:57.133Z,3.88
2023-04-23T16:16:24.655Z,2.95
2023-04-23T16:18:52.263Z,3.80
2023-04-23T16:21:19.819Z,2.88
2023-04-23T16:23:47.348Z,3.25
2023-04-23T16:26:14.831Z,3.15
2023-04-23T16:28:42.442Z,3.08
2023-04-23T16:31:09.909Z,4.03
2023-04-23T16:33:37.466Z,3.70
2023-04-23T16:36:05.955Z,3.38
2023-04-23T16:38:33.512Z,2.83
2023-04-23T16:41:01.360Z,3.22
2023-04-23T16:43:28.889Z,2.85
2023-04-23T16:45:56.773Z,2.67
2023-04-23T16:48:24.245Z,2.60
2023-04-23T16:50:51.724Z,3.63
2023-04-23T16:53:19.243Z,3.03
2023-04-23T16:55:48.494Z,3.05
2023-04-23T16:58:17.898Z,2.65
2023-04-23T17:00:47.014Z,3.13
2023-04-23T17:03:15.890Z,2.08
2023-04-23T17:05:44.296Z,2.53
2023-04-23T17:08:12.840Z,1.95
2023-04-23T17:10:41.144Z,2.08
2023-04-23T17:13:08.687Z,2.10
2023-04-23T17:15:36.191Z,2.17
2023-04-23T17:18:03.975Z,2.10
2023-04-23T17:20:35.192Z,2.63
2023-04-23T17:23:02.900Z,2.63
2023-04-23T17:25:30.521Z,2.33
2023-04-23T17:27:58.054Z,2.80
2023-04-23T17:30:25.650Z,2.40
2023-04-23T17:32:53.326Z,3.00
2023-04-23T17:35:22.010Z,3.30
2023-04-23T17:37:49.624Z,3.92
2023-04-23T17:40:17.545Z,3.05
2023-04-23T17:42:45.342Z,3.10
2023-04-23T17:45:12.952Z,3.30
2023-04-23T17:47:41.038Z,3.30
2023-04-23T17:50:11.679Z,3.53
2023-04-23T17:52:44.118Z,3.17
2023-04-23T17:55:11.934Z,3.50
2023-04-23T17:57:40.880Z,3.67
2023-04-23T18:00:13.194Z,3.53
2023-04-23T18:02:43.804Z,3.03
2023-04-23T18:05:14.803Z,3.15
2023-04-23T18:07:44.392Z,3.55
2023-04-23T18:10:12.456Z,3.30
2023-04-23T18:12:43.548Z,3.45
2023-04-23T18:15:15.158Z,4.38
2023-04-23T18:17:45.138Z,3.28
2023-04-23T18:20:13.483Z,3.97
2023-04-23T18:22:44.380Z,4.35
2023-04-23T18:25:14.834Z,4.25
2023-04-23T18:27:42.389Z,3.53
2023-04-23T18:30:14.457Z,3.70
2023-04-23T18:32:47.876Z,3.97
2023-04-23T18:35:15.868Z,3.72
2023-04-23T18:37:57.049Z,4.25
2023-04-23T18:40:27.038Z,3.92
2023-04-23T18:42:55.076Z,3.67
2023-04-23T18:45:25.919Z,3.17
2023-04-23T18:47:59.497Z,3.47
2023-04-23T18:50:44.030Z,2.92
2023-04-23T18:53:11.609Z,2.75
2023-04-23T18:55:41.267Z,3.22
2023-04-23T18:58:11.249Z,3.38
2023-04-23T19:00:38.886Z,3.15
2023-04-23T19:03:19.451Z,3.92
2023-04-23T19:05:52.223Z,3.25
2023-04-23T19:08:19.873Z,3.90
2023-04-23T19:10:49.763Z,5.40
2023-04-23T19:13:21.447Z,3.45
2023-04-23T19:15:55.665Z,3.38
2023-04-23T19:18:25.586Z,2.92
2023-04-23T19:20:53.097Z,2.80
2023-04-23T19:23:21.609Z,3.40
2023-04-23T19:25:49.116Z,3.13
2023-04-23T19:28:19.908Z,3.58
2023-04-23T19:30:49.613Z,3.33
2023-04-23T19:33:17.252Z,3.88
2023-04-23T19:35:47.873Z,4.75
2023-04-23T19:38:15.689Z,2.92
2023-04-23T19:40:43.527Z,3.92
2023-04-23T19:43:12.858Z,3.08
2023-04-23T19:45:40.626Z,3.47
2023-04-23T19:48:08.516Z,3.00
2023-04-23T19:50:36.424Z,3.10
2023-04-23T19:53:08.280Z,3.55
2023-04-23T19:55:36.086Z,3.45
2023-04-23T19:58:06.676Z,4.10
2023-04-23T20:00:38.856Z,3.38
2023-04-23T20:03:09.534Z,3.60
2023-04-23T20:05:37.699Z,4.00
2023-04-23T20:08:11.477Z,4.68
2023-04-23T20:10:39.056Z,3.33
2023-04-23T20:13:06.519Z,4.15
2023-04-23T20:15:34.028Z,4.28
2023-04-23T20:18:01.639Z,4.53
2023-04-23T20:20:29.137Z,4.25
2023-04-23T20:22:56.868Z,4.15
2023-04-23T20:25:25.898Z,4.63
2023-04-23T20:27:56.983Z,4.60
2023-04-23T20:30:24.544Z,3.70
2023-04-23T20:32:52.195Z,4.38
2023-04-23T20:35:19.843Z,4.47
2023-04-23T20:37:47.919Z,4.55
2023-04-23T20:40:15.554Z,4.35
2023-04-23T20:42:42.959Z,3.28
2023-04-23T20:45:13.081Z,3.60
2023-04-23T20:47:41.493Z,3.17
2023-04-23T20:50:09.440Z,3.45
2023-04-23T20:52:37.129Z,3.20
2023-04-23T20:55:04.816Z,3.80
2023-04-23T20:57:32.707Z,4.00
2023-04-23T21:00:00.143Z,4.72
2023-04-23T21:02:27.854Z,3.70
2023-04-23T21:04:55.447Z,4.22
2023-04-23T21:07:22.937Z,4.55
2023-04-23T21:09:50.472Z,3.72
2023-04-23T21:12:18.096Z,3.63
2023-04-23T21:14:45.741Z,4.53
2023-04-23T21:17:13.353Z,3.50
2023-04-23T21:19:41.076Z,4.10
2023-04-23T21:22:08.722Z,4.18
2023-04-23T21:24:36.170Z,4.47
2023-04-23T21:27:03.903Z,3.83
2023-04-23T21:29:32.251Z,3.38
2023-04-23T21:31:59.857Z,3.88
2023-04-23T21:34:29.548Z,4.28
2023-04-23T21:36:57.092Z,4.82
2023-04-23T21:39:24.549Z,4.43
2023-04-23T21:41:52.161Z,4.43
2023-04-23T21:44:19.671Z,3.63
2023-04-23T21:46:47.993Z,3.95
2023-04-23T21:49:17.396Z,4.30
2023-04-23T21:51:45.400Z,3.22
2023-04-23T21:54:13.366Z,3.95
2023-04-23T21:56:41.005Z,4.20
2023-04-23T21:59:08.519Z,3.63
2023-04-23T22:01:36.957Z,3.30
2023-04-23T22:04:04.856Z,4.25
2023-04-23T22:06:34.423Z,3.75
2023-04-23T22:09:02.281Z,3.17
2023-04-23T22:11:31.429Z,3.85
2023-04-23T22:14:00.122Z,3.40
2023-04-23T22:16:28.983Z,4.55
2023-04-23T22:18:57.971Z,3.10
2023-04-23T22:21:25.632Z,3.05
2023-04-23T22:23:53.230Z,3.42
2023-04-23T22:26:21.714Z,3.28
2023-04-23T22:28:49.257Z,4.15
2023-04-23T22:31:17.433Z,3.08
2023-04-23T22:33:45.272Z,3.65
2023-04-23T22:36:12.733Z,2.80
2023-04-23T22:38:40.775Z,2.92
2023-04-23T22:41:08.373Z,3.53
2023-04-23T22:43:35.820Z,3.20
2023-04-23T22:46:03.446Z,3.13
2023-04-23T22:48:31.136Z,2.30
2023-04-23T22:50:59.233Z,3.67
2023-04-23T22:53:26.704Z,3.95
2023-04-23T22:55:54.383Z,2.30
2023-04-23T22:58:22.010Z,2.40
2023-04-23T23:00:49.412Z,2.72
2023-04-23T23:03:17.196Z,3.35
2023-04-23T23:05:44.696Z,2.88
2023-04-23T23:08:12.193Z,2.50
2023-04-23T23:10:39.811Z,2.90
2023-04-23T23:13:07.289Z,4.07
2023-04-23T23:15:34.774Z,2.83
2023-04-23T23:18:02.387Z,3.28
2023-04-23T23:20:29.877Z,3.05
2023-04-23T23:22:57.542Z,3.30
2023-04-23T23:25:25.131Z,2.90
2023-04-23T23:27:52.896Z,3.10
2023-04-23T23:30:20.596Z,3.97
2023-04-23T23:32:48.425Z,3.97
2023-04-23T23:35:16.368Z,4.40
2023-04-23T23:37:43.839Z,3.83
2023-04-23T23:40:11.631Z,4.43
2023-04-23T23:42:39.231Z,4.07
2023-04-23T23:45:07.258Z,4.20
2023-04-23T23:47:34.913Z,3.67
2023-04-23T23:50:02.637Z,4.25
2023-04-23T23:52:30.282Z,3.88
2023-04-23T23:54:57.824Z,3.83
2023-04-23T23:57:25.355Z,3.88
2023-04-23T23:59:52.815Z,3.70
